Time;durP1;ratioP1;P1;durP2;ratioP2;P2;SDS_P1;SDS_P2;PMS_P1;PMS_P2;Temp;Humidity;BMP_temperature;BMP_pressure;BME280_temperature;BME280_humidity;BME280_pressure;Samples;Min_cycle;Max_cycle;Signal;HPM_P1;HPM_P2
2022/07/20 00:01:13;;;;;;;6.75;3.25;;;;;;;26.34;32.43;101003.78;5284498;28;20094;-73
2022/07/20 00:03:45;;;;;;;17.20;4.03;;;;;;;26.27;32.52;100999.00;5285105;28;20032;-74
2022/07/20 00:06:17;;;;;;;8.65;3.78;;;;;;;26.27;32.54;100997.19;5285171;28;20157;-74
2022/07/20 00:11:38;;;;;;;7.20;3.60;;;;;;;26.09;33.09;101002.09;5284829;28;20127;-74
2022/07/20 00:14:09;;;;;;;7.03;3.60;;;;;;;26.00;33.29;100992.09;5284644;28;20033;-73
2022/07/20 00:16:41;;;;;;;9.02;4.30;;;;;;;25.88;33.18;100993.00;5266055;28;20047;-73
2022/07/20 00:19:12;;;;;;;7.93;3.60;;;;;;;26.00;32.74;100995.63;5284978;28;20037;-74
2022/07/20 00:21:44;;;;;;;9.13;3.58;;;;;;;26.00;33.19;100994.75;5284796;28;20455;-73
2022/07/20 00:24:15;;;;;;;8.70;3.78;;;;;;;25.93;33.13;100990.84;5284690;28;20032;-74
2022/07/20 00:26:46;;;;;;;7.37;4.23;;;;;;;25.83;33.20;100996.00;5284391;28;20039;-74
2022/07/20 00:29:18;;;;;;;8.07;3.77;;;;;;;25.76;33.43;100989.41;5284370;28;20274;-74
2022/07/20 00:31:49;;;;;;;7.13;3.87;;;;;;;25.65;33.48;100993.72;5266210;28;20767;-74
2022/07/20 00:34:21;;;;;;;12.77;4.10;;;;;;;25.67;33.39;100980.25;5284595;28;20267;-74
2022/07/20 00:36:52;;;;;;;9.20;3.97;;;;;;;25.79;33.38;100999.84;5284798;28;20056;-73
2022/07/20 00:39:23;;;;;;;11.97;4.07;;;;;;;25.35;35.29;101017.28;5284147;28;20327;-73
2022/07/20 00:41:55;;;;;;;10.20;4.00;;;;;;;25.72;32.55;101060.03;5284281;28;20383;-74
2022/07/20 00:44:26;;;;;;;9.83;3.43;;;;;;;25.65;33.14;101000.88;5283828;28;20278;-73
2022/07/20 00:46:57;;;;;;;11.30;4.18;;;;;;;25.53;33.86;101004.44;5284043;28;20033;-74
2022/07/20 00:49:29;;;;;;;13.43;4.00;;;;;;;25.53;33.22;101007.09;5284001;28;20129;-75
2022/07/20 00:52:01;;;;;;;11.50;3.60;;;;;;;25.49;33.13;101017.16;5283830;28;20027;-74
2022/07/20 00:54:32;;;;;;;12.95;4.45;;;;;;;25.35;33.55;101050.16;5284087;28;20486;-74
2022/07/20 00:57:03;;;;;;;7.68;4.07;;;;;;;25.52;33.64;101024.94;5283835;28;20073;-74
2022/07/20 00:59:35;;;;;;;6.50;3.92;;;;;;;25.48;32.92;101023.44;5283989;28;20115;-75
2022/07/20 01:02:06;;;;;;;11.47;3.60;;;;;;;25.42;33.33;101043.44;5265340;28;20029;-74
2022/07/20 01:04:38;;;;;;;10.57;3.88;;;;;;;25.42;33.17;101054.13;5283224;28;20337;-74
2022/07/20 01:07:10;;;;;;;7.10;3.85;;;;;;;25.41;33.45;101027.53;5283819;28;20032;-74
2022/07/20 01:09:42;;;;;;;8.68;4.13;;;;;;;25.38;33.55;101023.25;5283386;28;20040;-74
2022/07/20 01:12:13;;;;;;;14.50;4.43;;;;;;;25.29;33.74;101019.44;5266118;28;20039;-74
2022/07/20 01:14:44;;;;;;;11.13;4.87;;;;;;;25.24;33.62;101026.88;5283716;28;20394;-74
2022/07/20 01:17:16;;;;;;;9.65;4.00;;;;;;;25.33;33.48;101024.56;5284136;28;20096;-74
2022/07/20 01:19:47;;;;;;;11.93;3.97;;;;;;;24.99;34.99;101026.88;5283338;28;20036;-74
2022/07/20 01:22:18;;;;;;;10.23;4.03;;;;;;;25.16;34.38;101031.88;5283452;28;20110;-76
2022/07/20 01:24:50;;;;;;;8.40;4.30;;;;;;;25.02;34.91;101026.66;5282928;28;20084;-75
2022/07/20 01:27:21;;;;;;;7.97;4.33;;;;;;;24.84;35.25;101020.81;5265017;28;20487;-75
2022/07/20 01:29:52;;;;;;;12.73;3.67;;;;;;;24.89;35.56;101019.56;5283274;28;20523;-74
2022/07/20 01:32:24;;;;;;;10.60;3.97;;;;;;;24.70;35.96;101021.78;5283209;28;20713;-73
2022/07/20 01:34:55;;;;;;;11.27;4.30;;;;;;;24.52;35.94;101023.84;5283192;28;20035;-74
2022/07/20 01:37:28;;;;;;;12.43;5.87;;;;;;;24.52;36.68;101022.03;5283036;28;20029;-74
2022/07/20 01:39:59;;;;;;;10.18;4.38;;;;;;;24.48;36.79;101011.69;5283008;28;20040;-74
2022/07/20 01:42:30;;;;;;;7.60;4.33;;;;;;;24.24;36.75;101011.53;5283422;28;20062;-74
2022/07/20 01:45:02;;;;;;;7.10;3.83;;;;;;;24.30;36.51;101013.78;5282661;28;20443;-74
2022/07/20 01:47:33;;;;;;;9.13;4.10;;;;;;;24.39;36.74;101019.34;5283110;28;20390;-75
2022/07/20 01:50:05;;;;;;;7.23;3.97;;;;;;;24.39;36.29;101014.03;5265430;28;20453;-75
2022/07/20 01:52:37;;;;;;;11.52;3.90;;;;;;;24.48;36.30;101023.19;5282527;28;20111;-75
2022/07/20 01:55:08;;;;;;;8.23;4.10;;;;;;;24.37;36.68;101034.56;5283031;28;20039;-73
2022/07/20 01:57:40;;;;;;;11.18;4.18;;;;;;;24.36;36.49;101026.72;5282959;28;20082;-74
2022/07/20 02:00:13;;;;;;;8.15;3.90;;;;;;;24.33;36.48;101033.09;5264609;28;20025;-75
2022/07/20 02:02:44;;;;;;;9.55;3.58;;;;;;;24.10;37.46;101034.63;5282263;28;20080;-74
2022/07/20 02:05:16;;;;;;;6.60;3.83;;;;;;;24.16;36.89;101044.84;5283017;28;20356;-74
2022/07/20 02:07:48;;;;;;;;;;;;;;;24.23;35.58;101063.09;5283415;28;20055;-74
2022/07/20 02:10:19;;;;;;;10.70;4.87;;;;;;;24.34;35.75;101072.09;5282240;28;19966;-75
2022/07/20 02:12:50;;;;;;;11.33;4.10;;;;;;;24.38;35.58;101078.06;5282545;28;20033;-74
2022/07/20 02:18:13;;;;;;;13.38;5.43;;;;;;;24.37;36.96;101085.19;5282412;28;20138;-74
2022/07/20 02:20:44;;;;;;;16.02;6.80;;;;;;;24.33;37.54;101067.72;5282612;28;20160;-75
2022/07/20 02:23:15;;;;;;;9.67;6.17;;;;;;;24.28;38.34;101068.97;5282355;28;20458;-75
2022/07/20 02:25:47;;;;;;;11.73;7.10;;;;;;;24.23;39.20;101063.97;5264625;28;20044;-74
2022/07/20 02:28:18;;;;;;;11.47;6.73;;;;;;;24.01;39.98;101072.50;5282580;28;20328;-73
2022/07/20 02:30:50;;;;;;;15.37;7.37;;;;;;;23.94;40.68;101072.03;5282475;28;20629;-74
2022/07/20 02:33:21;;;;;;;13.77;8.13;;;;;;;23.91;40.96;101071.38;5282235;28;20115;-74
2022/07/20 02:35:53;;;;;;;14.45;8.48;;;;;;;23.78;42.14;101069.47;5282352;28;20032;-75
2022/07/20 02:38:24;;;;;;;13.63;7.90;;;;;;;23.81;42.41;101065.75;5282286;28;20078;-73
2022/07/20 02:40:56;;;;;;;15.73;9.82;;;;;;;23.64;43.73;101080.16;5282024;28;20054;-74
2022/07/20 02:43:27;;;;;;;21.30;10.27;;;;;;;23.61;45.06;101078.53;5281632;28;20506;-74
2022/07/20 02:45:59;;;;;;;18.80;12.03;;;;;;;23.51;46.34;101085.38;5282316;28;20467;-74
2022/07/20 02:48:30;;;;;;;17.07;12.00;;;;;;;23.43;47.51;101080.53;5282862;28;20112;-75
2022/07/20 02:51:02;;;;;;;25.42;14.90;;;;;;;23.29;48.53;101086.69;5283370;28;20356;-74
2022/07/20 02:53:33;;;;;;;20.27;14.80;;;;;;;23.20;50.19;101081.97;5283111;28;20040;-74
2022/07/20 02:56:05;;;;;;;21.07;15.57;;;;;;;23.21;50.32;101083.66;5263298;28;20036;-73
2022/07/20 02:58:37;;;;;;;21.47;15.83;;;;;;;23.10;51.44;101071.03;5282001;28;20371;-74
2022/07/20 03:01:08;;;;;;;25.67;17.08;;;;;;;23.11;52.23;101079.88;5281634;28;20451;-73
2022/07/20 03:03:40;;;;;;;22.87;15.60;;;;;;;23.05;53.00;101088.16;5264059;28;20104;-73
2022/07/20 03:06:11;;;;;;;22.03;16.80;;;;;;;22.95;53.62;101096.69;5282151;28;20037;-73
2022/07/20 03:08:43;;;;;;;24.13;15.73;;;;;;;23.03;53.72;101090.94;5281807;28;20028;-74
2022/07/20 03:11:14;;;;;;;25.77;17.00;;;;;;;22.90;54.83;101090.81;5281905;28;20045;-75
2022/07/20 03:13:46;;;;;;;28.23;18.43;;;;;;;22.77;55.41;101085.38;5281603;28;20090;-75
2022/07/20 03:16:17;;;;;;;27.40;18.40;;;;;;;22.72;56.29;101070.66;5281626;28;20040;-74
2022/07/20 03:18:48;;;;;;;28.20;19.85;;;;;;;22.66;56.94;101071.00;5263621;28;20493;-74
2022/07/20 03:21:20;;;;;;;27.67;20.37;;;;;;;22.62;57.35;101088.06;5281633;28;20032;-73
2022/07/20 03:23:52;;;;;;;27.43;18.73;;;;;;;22.63;57.75;101090.63;5264050;28;20021;-72
2022/07/20 03:26:24;;;;;;;26.60;19.00;;;;;;;22.51;58.41;101100.19;5281887;28;20044;-74
2022/07/20 03:28:55;;;;;;;29.83;20.00;;;;;;;22.53;58.49;101102.75;5281655;28;20036;-73
2022/07/20 03:31:26;;;;;;;30.07;21.50;;;;;;;22.44;58.91;101113.91;5281719;28;20035;-73
2022/07/20 03:33:58;;;;;;;28.63;21.20;;;;;;;22.48;59.16;101118.97;5282321;28;20561;-74
2022/07/20 03:36:29;;;;;;;25.17;22.23;;;;;;;22.31;60.20;101130.53;5282457;28;20032;-75
2022/07/20 03:39:00;;;;;;;28.03;19.93;;;;;;;22.26;60.56;101126.41;5281602;28;20446;-74
2022/07/20 03:41:32;;;;;;;31.13;22.03;;;;;;;22.28;60.43;101135.13;5258678;28;20533;-73
2022/07/20 03:44:03;;;;;;;28.10;21.10;;;;;;;22.26;61.04;101137.88;5259038;28;20090;-74
2022/07/20 03:46:35;;;;;;;33.10;22.33;;;;;;;22.24;61.33;101139.78;5260831;28;20407;-74
2022/07/20 03:49:06;;;;;;;33.20;21.73;;;;;;;22.09;62.16;101143.28;5260831;28;20174;-74
2022/07/20 03:51:38;;;;;;;34.53;23.87;;;;;;;22.18;62.06;101148.91;5260821;28;20456;-75
2022/07/20 03:54:09;;;;;;;30.83;24.47;;;;;;;22.11;62.61;101160.00;5260359;28;20041;-74
2022/07/20 03:56:41;;;;;;;31.83;23.83;;;;;;;22.11;62.86;101165.31;5260754;28;20634;-73
2022/07/20 03:59:12;;;;;;;24.97;22.37;;;;;;;22.15;62.77;101172.13;5260655;28;20053;-75
2022/07/20 04:01:43;;;;;;;28.07;22.23;;;;;;;22.09;63.36;101183.97;5260401;28;20037;-74
2022/07/20 04:04:15;;;;;;;30.08;23.88;;;;;;;22.10;63.27;101185.66;5260506;28;20468;-75
2022/07/20 04:06:46;;;;;;;32.97;22.67;;;;;;;22.09;62.92;101186.63;5261162;28;20384;-74
2022/07/20 04:09:43;;;;;;;32.80;23.80;;;;;;;22.10;63.02;101187.47;5264328;28;20268;-74
2022/07/20 04:12:11;;;;;;;35.88;23.88;;;;;;;22.06;62.95;101189.44;5264038;28;20457;-76
2022/07/20 04:14:43;;;;;;;38.28;25.25;;;;;;;22.12;62.71;101186.47;5264865;28;20414;-73
2022/07/20 04:17:15;;;;;;;30.63;24.52;;;;;;;22.14;62.41;101195.19;5264401;28;20029;-74
2022/07/20 04:19:47;;;;;;;36.25;25.10;;;;;;;22.18;62.68;101193.22;5264821;28;20029;-73
2022/07/20 04:22:18;;;;;;;33.35;21.65;;;;;;;22.30;61.67;101203.19;5263770;28;20495;-74
2022/07/20 04:24:50;;;;;;;29.93;23.20;;;;;;;22.30;62.07;101191.69;5264526;28;20037;-75
2022/07/20 04:27:21;;;;;;;26.87;22.73;;;;;;;22.21;62.25;101204.50;5263992;28;20056;-75
2022/07/20 04:29:53;;;;;;;32.23;23.33;;;;;;;22.25;61.76;101204.34;5264194;28;20432;-75
2022/07/20 04:32:24;;;;;;;26.77;22.27;;;;;;;22.21;61.94;101209.81;5263815;28;20033;-75
2022/07/20 04:34:55;;;;;;;30.73;22.57;;;;;;;22.24;61.80;101218.59;5262436;28;20126;-79
2022/07/20 04:37:27;;;;;;;26.83;21.10;;;;;;;22.28;61.68;101225.44;5264186;28;20036;-74
2022/07/20 04:39:58;;;;;;;25.33;21.17;;;;;;;22.39;61.37;101213.31;5263423;28;20494;-75
2022/07/20 04:42:30;;;;;;;26.83;20.77;;;;;;;22.36;61.38;101223.22;5276347;28;20045;-75
2022/07/20 04:45:03;;;;;;;28.48;20.90;;;;;;;22.38;61.26;101230.19;5284247;28;20032;-74
2022/07/20 04:47:35;;;;;;;26.23;19.92;;;;;;;22.43;60.90;101237.03;5284488;28;20080;-75
2022/07/20 04:50:07;;;;;;;28.08;20.55;;;;;;;22.43;60.84;101240.56;5267004;28;20119;-75
2022/07/20 04:52:38;;;;;;;30.95;20.77;;;;;;;22.38;60.64;101235.50;5284445;28;20032;-73
2022/07/20 04:55:10;;;;;;;24.48;19.27;;;;;;;22.40;60.57;101240.72;5284126;28;20039;-75
2022/07/20 04:57:41;;;;;;;24.03;20.43;;;;;;;22.42;60.42;101243.31;5284713;28;20106;-75
2022/07/20 05:00:13;;;;;;;26.00;18.90;;;;;;;22.34;60.96;101246.38;5284123;28;20032;-75
2022/07/20 05:02:44;;;;;;;31.58;19.58;;;;;;;22.31;60.66;101230.59;5283571;28;20036;-75
2022/07/20 05:05:16;;;;;;;25.60;20.00;;;;;;;22.29;60.51;101243.97;5284121;28;20521;-75
2022/07/20 05:07:47;;;;;;;23.83;19.50;;;;;;;22.24;61.01;101237.19;5283488;28;20041;-75
2022/07/20 05:10:19;;;;;;;29.50;19.77;;;;;;;22.30;60.72;101236.84;5265646;28;20123;-75
2022/07/20 05:12:50;;;;;;;26.42;18.25;;;;;;;22.29;60.42;101241.31;5266356;28;20423;-75
2022/07/20 05:15:23;;;;;;;25.43;18.07;;;;;;;22.39;60.71;101236.34;5284220;28;20366;-76
2022/07/20 05:17:54;;;;;;;23.23;18.27;;;;;;;22.47;60.45;101235.94;5283245;28;20025;-74
2022/07/20 05:20:26;;;;;;;30.10;21.43;;;;;;;22.42;60.23;101243.31;5283271;28;20074;-76
2022/07/20 05:22:57;;;;;;;32.10;18.17;;;;;;;22.44;60.24;101242.25;5265393;28;20052;-76
2022/07/20 05:25:28;;;;;;;23.93;17.20;;;;;;;22.55;59.95;101241.66;5265857;28;20479;-76
2022/07/20 05:28:00;;;;;;;24.30;16.87;;;;;;;22.60;59.93;101263.50;5284024;28;20061;-76
2022/07/20 05:30:31;;;;;;;26.17;19.10;;;;;;;22.55;59.51;101268.22;5283363;28;20063;-75
2022/07/20 05:33:03;;;;;;;22.58;17.92;;;;;;;22.55;59.60;101277.06;5266117;28;20038;-75
2022/07/20 05:35:34;;;;;;;20.57;17.53;;;;;;;22.64;59.40;101280.16;5283198;28;20092;-76
2022/07/20 05:38:06;;;;;;;23.67;16.33;;;;;;;22.74;58.92;101286.66;5283324;28;20120;-76
2022/07/20 05:40:37;;;;;;;23.48;17.13;;;;;;;22.72;59.05;101285.91;5283656;28;20031;-76
2022/07/20 05:43:09;;;;;;;24.23;17.63;;;;;;;22.80;58.33;101294.31;5283318;28;20056;-76
2022/07/20 05:45:40;;;;;;;23.53;16.77;;;;;;;22.76;58.72;101306.91;5284847;28;20060;-76
2022/07/20 05:48:13;;;;;;;25.05;17.13;;;;;;;22.90;58.65;101319.41;5283631;28;20466;-76
2022/07/20 05:50:44;;;;;;;;;;;;;;;23.03;57.51;101316.06;5283174;28;20093;-75
2022/07/20 05:53:16;;;;;;;22.90;15.73;;;;;;;22.93;57.39;101324.56;5283221;28;20227;-76
2022/07/20 05:55:47;;;;;;;20.87;14.47;;;;;;;23.13;57.18;101319.94;5282858;28;20033;-76
2022/07/20 05:58:18;;;;;;;24.20;15.43;;;;;;;23.16;56.62;101318.91;5282883;28;20044;-76
2022/07/20 06:00:50;;;;;;;21.53;14.97;;;;;;;23.28;56.37;101327.06;5282529;28;20033;-77
2022/07/20 06:03:21;;;;;;;21.67;14.67;;;;;;;23.41;55.77;101342.28;5282364;28;20036;-76
2022/07/20 06:05:52;;;;;;;22.70;15.03;;;;;;;23.42;55.42;101342.19;5282740;28;20033;-75
2022/07/20 06:08:24;;;;;;;23.03;14.33;;;;;;;23.44;55.59;101350.97;5283153;28;20029;-75
2022/07/20 06:10:55;;;;;;;23.33;14.67;;;;;;;23.46;55.55;101356.19;5282536;28;20104;-76
2022/07/20 06:13:26;;;;;;;23.67;13.43;;;;;;;23.44;55.52;101355.41;5264910;28;20037;-75
2022/07/20 06:15:58;;;;;;;21.07;13.93;;;;;;;23.47;55.71;101357.91;5282532;28;20032;-74
2022/07/20 06:18:29;;;;;;;23.70;13.60;;;;;;;23.37;55.81;101375.34;5282796;28;20370;-77
2022/07/20 06:21:01;;;;;;;20.90;13.00;;;;;;;23.20;56.10;101379.84;5283154;28;20402;-76
2022/07/20 06:23:32;;;;;;;17.23;12.50;;;;;;;23.24;56.18;101381.34;5282770;28;20058;-75
2022/07/20 06:26:03;;;;;;;21.23;13.60;;;;;;;23.23;56.02;101390.28;5282609;28;20029;-78
2022/07/20 06:28:35;;;;;;;20.17;12.33;;;;;;;23.44;56.00;101398.84;5283774;28;20117;-75
2022/07/20 06:31:06;;;;;;;21.10;12.90;;;;;;;23.50;55.43;101408.28;5284400;28;20033;-76
2022/07/20 06:33:38;;;;;;;18.73;13.57;;;;;;;23.43;55.24;101407.78;5264872;28;20028;-76
2022/07/20 06:36:09;;;;;;;23.33;13.20;;;;;;;23.50;55.32;101429.56;5282899;28;20037;-76
2022/07/20 06:38:41;;;;;;;15.73;11.80;;;;;;;23.56;55.10;101429.22;5281736;28;20028;-77
2022/07/20 06:41:12;;;;;;;17.77;11.97;;;;;;;23.54;55.33;101440.88;5282032;28;20414;-77
2022/07/20 06:43:43;;;;;;;18.83;11.93;;;;;;;23.62;54.99;101436.00;5264422;28;20039;-77
2022/07/20 06:46:15;;;;;;;19.40;11.87;;;;;;;23.71;54.97;101453.22;5263880;28;20500;-74
2022/07/20 06:48:46;;;;;;;17.23;12.47;;;;;;;23.53;54.73;101457.81;5282007;28;20464;-76
2022/07/20 06:51:17;;;;;;;22.47;13.03;;;;;;;23.30;55.63;101458.16;5282532;28;20464;-75
2022/07/20 06:53:49;;;;;;;19.10;12.80;;;;;;;23.24;55.87;101461.16;5282188;28;20040;-73
2022/07/20 06:56:20;;;;;;;21.63;13.00;;;;;;;23.27;56.31;101465.44;5281712;28;20043;-76
2022/07/20 06:58:52;;;;;;;24.83;13.10;;;;;;;23.29;55.66;101472.38;5282267;28;20059;-75
2022/07/20 07:01:23;;;;;;;21.33;12.60;;;;;;;23.43;55.75;101466.31;5282016;28;20035;-76
2022/07/20 07:03:54;;;;;;;19.47;11.87;;;;;;;23.54;55.47;101470.16;5282507;28;20052;-77
2022/07/20 07:06:28;;;;;;;22.70;12.07;;;;;;;23.48;55.44;101464.25;5264450;28;20135;-76
2022/07/20 07:09:00;;;;;;;17.90;12.27;;;;;;;23.62;55.33;101471.44;5282054;28;20021;-76
2022/07/20 07:11:32;;;;;;;17.13;12.70;;;;;;;23.67;55.11;101463.22;5283053;28;20044;-77
2022/07/20 07:14:05;;;;;;;19.85;12.48;;;;;;;23.60;55.09;101456.50;5268452;28;20060;-78
2022/07/20 07:16:36;;;;;;;;;;;;;;;23.97;54.57;101439.31;5284720;28;20040;-77
2022/07/20 07:19:08;;;;;;;19.93;12.13;;;;;;;23.90;54.04;101445.06;5266635;28;19917;-75
2022/07/20 07:21:39;;;;;;;17.95;11.48;;;;;;;24.15;53.59;101461.31;5282510;28;20085;-75
2022/07/20 07:24:10;;;;;;;21.30;11.57;;;;;;;24.32;53.28;101459.44;5281666;28;20040;-76
2022/07/20 07:26:42;;;;;;;16.50;11.43;;;;;;;24.35;53.00;101468.09;5281635;28;20622;-74
2022/07/20 07:29:14;;;;;;;19.48;12.27;;;;;;;24.28;52.71;101484.56;5281651;28;20383;-76
2022/07/20 07:31:45;;;;;;;15.48;11.23;;;;;;;24.36;53.24;101483.16;5281729;28;20090;-76
2022/07/20 07:34:17;;;;;;;14.17;10.77;;;;;;;24.66;52.74;101484.94;5281369;28;20028;-76
2022/07/20 07:36:48;;;;;;;18.23;10.80;;;;;;;24.84;52.13;101498.97;5281672;28;20044;-78
2022/07/20 07:39:20;;;;;;;17.47;10.53;;;;;;;24.93;51.51;101509.03;5281409;28;20066;-76
2022/07/20 07:41:51;;;;;;;20.50;10.55;;;;;;;25.19;51.62;101508.38;5282324;28;20056;-76
2022/07/20 07:44:23;;;;;;;17.33;10.50;;;;;;;25.22;51.30;101510.84;5286153;28;20064;-76
2022/07/20 07:46:54;;;;;;;18.52;10.25;;;;;;;25.02;51.03;101522.75;5285711;28;20102;-77
2022/07/20 07:49:26;;;;;;;19.20;12.40;;;;;;;24.94;50.99;101528.59;5285847;28;20140;-76
2022/07/20 07:51:57;;;;;;;17.33;10.90;;;;;;;24.87;51.30;101529.91;5285230;28;20077;-75
2022/07/20 07:54:29;;;;;;;14.05;10.40;;;;;;;24.83;51.11;101528.38;5285864;28;20287;-75
2022/07/20 07:57:00;;;;;;;23.30;10.30;;;;;;;24.94;50.79;101521.44;5286050;28;20103;-76
2022/07/20 07:59:31;;;;;;;16.42;10.50;;;;;;;25.24;50.65;101525.78;5285141;28;20267;-76
2022/07/20 08:02:04;;;;;;;15.65;9.68;;;;;;;25.45;49.60;101526.31;5285565;28;20115;-77
2022/07/20 08:04:35;;;;;;;13.50;8.88;;;;;;;25.72;48.90;101508.59;5285522;28;20414;-75
2022/07/20 08:07:07;;;;;;;16.95;8.60;;;;;;;26.10;47.70;101498.06;5285208;28;20028;-76
2022/07/20 08:09:39;;;;;;;14.87;9.33;;;;;;;26.09;46.99;101490.16;5285492;28;20105;-77
2022/07/20 08:12:11;;;;;;;15.80;9.57;;;;;;;25.98;46.87;101490.88;5267222;28;20313;-76
2022/07/20 08:14:42;;;;;;;14.18;8.32;;;;;;;26.32;46.39;101480.56;5284702;28;20460;-77
2022/07/20 08:17:13;;;;;;;17.47;9.57;;;;;;;26.44;45.43;101487.75;5285062;28;20035;-76
2022/07/20 08:19:45;;;;;;;14.70;9.63;;;;;;;26.56;46.29;101486.91;5285470;28;20294;-76
2022/07/20 08:22:16;;;;;;;14.73;9.35;;;;;;;26.69;45.32;101484.25;5285146;28;20365;-75
2022/07/20 08:24:48;;;;;;;14.52;9.57;;;;;;;26.35;46.51;101491.03;5284910;28;20032;-77
2022/07/20 08:27:21;;;;;;;14.70;8.95;;;;;;;26.45;46.31;101488.59;5267250;28;20127;-76
2022/07/20 08:29:58;;;;;;;12.20;8.55;;;;;;;26.38;46.75;101494.34;5284751;28;20025;-75
2022/07/20 08:32:29;;;;;;;14.50;9.43;;;;;;;26.05;46.10;101507.34;5285405;28;20046;-76
2022/07/20 08:35:00;;;;;;;16.42;8.93;;;;;;;26.25;46.73;101514.88;5285282;28;20037;-76
2022/07/20 08:37:32;;;;;;;16.23;9.13;;;;;;;26.32;46.58;101521.53;5284831;28;20089;-76
2022/07/20 08:40:05;;;;;;;15.60;9.88;;;;;;;26.44;46.13;101516.31;5288588;28;20048;-78
2022/07/20 08:42:39;;;;;;;13.27;9.48;;;;;;;26.27;45.70;101530.81;5287648;28;20080;-76
2022/07/20 08:45:10;;;;;;;14.23;9.57;;;;;;;26.49;47.01;101528.38;5286453;28;20097;-76
2022/07/20 08:47:44;;;;;;;13.35;9.38;;;;;;;27.00;45.78;101519.56;5284360;28;20088;-76
2022/07/20 08:50:31;;;;;;;14.55;9.65;;;;;;;27.56;44.65;101523.63;5284339;28;20523;-75
2022/07/20 08:53:02;;;;;;;14.73;9.20;;;;;;;27.78;43.56;101520.22;5283556;28;20036;-76
2022/07/20 08:55:34;;;;;;;;;;;;;;;28.44;42.80;101514.41;5266158;28;20051;-75
2022/07/20 08:58:05;;;;;;;14.77;8.73;;;;;;;28.02;43.14;101501.50;5284245;28;19916;-75
2022/07/20 09:00:37;;;;;;;;;;;;;;;28.33;42.17;101480.38;5284318;28;20031;-76
2022/07/20 09:03:09;;;;;;;15.80;8.20;;;;;;;27.80;43.44;101478.94;5284235;28;20371;-77
2022/07/20 09:05:42;;;;;;;18.00;9.82;;;;;;;27.39;44.10;101474.84;5284487;28;20032;-78
2022/07/20 09:08:17;;;;;;;17.42;9.60;;;;;;;26.96;44.58;101493.13;5266085;28;20044;-77
2022/07/20 09:10:49;;;;;;;20.20;9.88;;;;;;;26.78;45.66;101501.47;5283895;28;20439;-77
2022/07/20 09:13:22;;;;;;;14.82;10.35;;;;;;;26.86;45.41;101519.66;5284056;28;20037;-76
2022/07/20 09:15:54;;;;;;;16.70;9.55;;;;;;;27.14;45.25;101531.94;5283970;28;20110;-76
2022/07/20 09:18:28;;;;;;;18.52;9.73;;;;;;;27.18;44.36;101543.31;5283943;28;20043;-75
2022/07/20 09:21:08;;;;;;;14.07;9.15;;;;;;;27.58;44.91;101594.00;5283956;28;20077;-75
2022/07/20 09:23:40;;;;;;;16.88;9.55;;;;;;;27.49;44.09;101602.72;5286876;28;20045;-77
2022/07/20 09:26:11;;;;;;;;;;;;;;;27.64;43.73;101607.81;5286465;28;20035;-77
2022/07/20 09:28:45;;;;;;;12.77;9.57;;;;;;;27.38;44.05;101608.81;5283689;28;19909;-76
2022/07/20 09:31:26;;;;;;;16.40;9.50;;;;;;;27.57;44.41;101603.00;5283355;28;20463;-76
2022/07/20 09:34:06;;;;;;;20.40;9.60;;;;;;;27.32;43.87;101596.72;5283389;28;20116;-78
2022/07/20 09:36:43;;;;;;;16.90;10.30;;;;;;;27.31;43.68;101584.31;5283757;28;20029;-77
2022/07/20 09:39:15;;;;;;;15.77;9.20;;;;;;;27.83;43.49;101585.88;5283215;28;20418;-77
2022/07/20 09:41:53;;;;;;;17.95;9.25;;;;;;;27.94;42.63;101593.16;5283158;28;20059;-79
2022/07/20 09:44:26;;;;;;;18.08;10.82;;;;;;;28.14;42.95;101583.66;5283341;28;20041;-77
2022/07/20 09:46:58;;;;;;;15.02;10.13;;;;;;;28.43;41.36;101577.06;5283253;28;20032;-78
2022/07/20 09:49:30;;;;;;;;;;;;;;;28.69;41.27;101577.75;5283523;28;20113;-76
2022/07/20 09:52:02;;;;;;;16.83;9.17;;;;;;;28.80;41.56;101568.88;5283431;28;19962;-76
2022/07/20 09:54:34;;;;;;;18.55;10.10;;;;;;;29.33;40.25;101560.28;5282998;28;20304;-77
2022/07/20 09:57:06;;;;;;;;;;;;;;;29.74;39.25;101556.91;5283843;28;20556;-77
2022/07/20 09:59:39;;;;;;;15.93;10.02;;;;;;;29.33;39.25;101554.91;5283150;28;19978;-76
2022/07/20 10:02:10;;;;;;;19.23;8.50;;;;;;;29.18;39.64;101565.03;5283165;28;20063;-78
2022/07/20 10:04:43;;;;;;;;;;;;;;;29.21;38.67;101572.88;5283345;28;20064;-76
2022/07/20 10:07:14;;;;;;;16.05;8.95;;;;;;;28.81;39.99;101568.78;5289491;28;19956;-78
2022/07/20 10:09:46;;;;;;;;;;;;;;;29.42;38.52;101584.56;5287171;28;20029;-76
2022/07/20 10:12:17;;;;;;;13.50;7.97;;;;;;;29.67;38.95;101590.63;5283771;28;19955;-77
2022/07/20 10:14:51;;;;;;;;;;;;;;;30.85;36.41;101598.78;5283591;28;20035;-76
2022/07/20 10:17:22;;;;;;;14.35;8.63;;;;;;;30.05;37.51;101586.66;5282792;28;19920;-79
2022/07/20 10:19:54;;;;;;;15.07;9.02;;;;;;;29.24;37.98;101586.91;5264829;28;20369;-78
2022/07/20 10:22:25;;;;;;;;;;;;;;;29.53;38.93;101572.09;5283331;28;20363;-77
2022/07/20 10:25:16;;;;;;;11.82;7.95;;;;;;;31.19;36.71;101568.94;5282872;28;20224;-79
2022/07/20 10:27:48;;;;;;;11.40;8.00;;;;;;;30.65;36.85;101559.25;5282427;28;20025;-78
2022/07/20 10:30:19;;;;;;;;;;;;;;;31.08;36.66;101569.03;5283075;28;20087;-78
2022/07/20 10:32:57;;;;;;;13.77;7.63;;;;;;;31.09;37.67;101562.66;5282895;28;19954;-76
2022/07/20 10:35:30;;;;;;;12.25;8.57;;;;;;;31.91;34.38;101580.50;5282386;28;20032;-77
2022/07/20 10:38:04;;;;;;;13.32;8.65;;;;;;;32.04;33.63;101579.34;5282764;28;20076;-77
2022/07/20 10:41:31;;;;;;;17.02;8.73;;;;;;;31.08;35.06;101563.63;5264423;28;20039;-78
2022/07/20 10:43:26;;;;;;;14.97;8.13;;;;;;;31.44;34.11;101569.44;5281832;28;20470;-77
2022/07/20 10:45:58;;;;;;;12.23;7.32;;;;;;;32.18;33.72;101570.88;5282038;28;20303;-78
2022/07/20 10:48:46;;;;;;;13.27;7.43;;;;;;;32.21;33.75;101570.59;5282391;28;20029;-76
2022/07/20 10:51:18;;;;;;;11.73;7.50;;;;;;;32.46;32.32;101563.75;5282382;28;20028;-78
2022/07/20 10:53:49;;;;;;;12.20;7.60;;;;;;;33.46;33.16;101558.78;5282419;28;20036;-76
2022/07/20 10:56:29;;;;;;;10.45;7.57;;;;;;;34.03;30.60;101560.38;5282070;28;20111;-77
2022/07/20 10:59:01;;;;;;;11.25;7.15;;;;;;;34.83;31.05;101565.78;5282350;28;20378;-77
2022/07/20 11:01:32;;;;;;;14.40;7.40;;;;;;;34.76;28.86;101575.53;5281895;28;20120;-77
2022/07/20 11:04:11;;;;;;;10.07;7.00;;;;;;;34.62;29.36;101585.09;5282560;28;20029;-78
2022/07/20 11:06:42;;;;;;;9.73;6.68;;;;;;;34.60;29.21;101569.00;5282269;28;20035;-78
2022/07/20 11:09:15;;;;;;;9.90;7.47;;;;;;;33.59;30.51;101577.31;5282105;28;20328;-78
2022/07/20 11:11:47;;;;;;;12.05;7.50;;;;;;;32.94;31.36;101582.72;5282381;28;20142;-77
2022/07/20 11:14:18;;;;;;;12.50;7.93;;;;;;;33.53;30.78;101575.22;5282456;28;20052;-78
2022/07/20 11:16:54;;;;;;;10.85;7.43;;;;;;;34.66;29.71;101567.50;5282934;28;20025;-78
2022/07/20 11:19:25;;;;;;;11.98;8.77;;;;;;;34.04;30.07;101560.25;5286139;28;20032;-77
2022/07/20 11:21:57;;;;;;;15.95;7.65;;;;;;;34.72;29.42;101568.72;5286416;28;20054;-77
2022/07/20 11:24:29;;;;;;;10.88;6.97;;;;;;;35.36;28.36;101572.84;5286392;28;20132;-77
2022/07/20 11:27:15;;;;;;;9.68;6.60;;;;;;;35.30;28.69;101562.66;5286753;28;20040;-77
2022/07/20 11:29:51;;;;;;;15.20;7.35;;;;;;;36.24;27.37;101571.50;5286502;28;20036;-77
2022/07/20 11:32:27;;;;;;;16.17;7.53;;;;;;;36.65;26.71;101560.59;5288256;28;20085;-77
2022/07/20 11:34:59;;;;;;;13.40;6.55;;;;;;;35.79;26.88;101572.78;5294043;28;20085;-76
2022/07/20 11:37:30;;;;;;;9.65;5.55;;;;;;;35.71;26.51;101564.63;5294089;28;20070;-77
2022/07/20 11:40:02;;;;;;;8.05;4.90;;;;;;;36.41;25.59;101553.34;5290338;28;20407;-77
2022/07/20 11:42:33;;;;;;;8.95;6.05;;;;;;;37.02;25.58;101548.28;5286768;28;20047;-78
2022/07/20 11:45:05;;;;;;;10.38;5.70;;;;;;;37.36;24.35;101549.88;5286158;28;20475;-75